sensor_id;sensor_type;location;lat;lon;timestamp;temperature;humidity
20182;DHT22;10250;50.756;6.172;2023-05-07T00:00:00;14.40;1.00
20182;DHT22;10250;50.756;6.172;2023-05-07T00:02:01;14.30;1.00
20182;DHT22;10250;50.756;6.172;2023-05-07T00:04:02;14.30;1.00
20182;DHT22;10250;50.756;6.172;2023-05-07T00:06:03;14.20;1.00
20182;DHT22;10250;50.756;6.172;2023-05-07T00:08:04;14.20;1.00
20182;DHT22;10250;50.756;6.172;2023-05-07T00:10:05;14.20;1.00
20182;DHT22;10250;50.756;6.172;2023-05-07T00:12:07;14.30;1.00
20182;DHT22;10250;50.756;6.172;2023-05-07T00:14:07;14.30;1.00
20182;DHT22;10250;50.756;6.172;2023-05-07T00:16:08;14.30;1.00
20182;DHT22;10250;50.756;6.172;2023-05-07T00:18:09;14.20;1.00
20182;DHT22;10250;50.756;6.172;2023-05-07T00:20:10;14.30;1.00
20182;DHT22;10250;50.756;6.172;2023-05-07T00:22:10;14.20;1.00
20182;DHT22;10250;50.756;6.172;2023-05-07T00:24:11;14.30;1.00
20182;DHT22;10250;50.756;6.172;2023-05-07T00:26:12;14.40;1.00
20182;DHT22;10250;50.756;6.172;2023-05-07T00:28:12;14.40;1.00
20182;DHT22;10250;50.756;6.172;2023-05-07T00:30:13;14.40;1.00
20182;DHT22;10250;50.756;6.172;2023-05-07T00:32:14;14.40;1.00
20182;DHT22;10250;50.756;6.172;2023-05-07T00:34:15;14.50;1.00
20182;DHT22;10250;50.756;6.172;2023-05-07T00:36:15;14.50;1.00
20182;DHT22;10250;50.756;6.172;2023-05-07T00:38:16;14.50;1.00
20182;DHT22;10250;50.756;6.172;2023-05-07T00:40:17;14.60;1.00
20182;DHT22;10250;50.756;6.172;2023-05-07T00:42:17;14.60;1.00
20182;DHT22;10250;50.756;6.172;2023-05-07T00:44:18;14.60;1.00
20182;DHT22;10250;50.756;6.172;2023-05-07T00:46:22;14.60;1.00
20182;DHT22;10250;50.756;6.172;2023-05-07T00:48:24;14.60;1.00
20182;DHT22;10250;50.756;6.172;2023-05-07T00:50:26;14.60;1.00
20182;DHT22;10250;50.756;6.172;2023-05-07T00:52:27;14.60;1.00
20182;DHT22;10250;50.756;6.172;2023-05-07T00:54:28;14.60;1.00
20182;DHT22;10250;50.756;6.172;2023-05-07T00:56:30;14.60;1.00
20182;DHT22;10250;50.756;6.172;2023-05-07T00:58:32;14.60;1.00
20182;DHT22;10250;50.756;6.172;2023-05-07T01:00:33;14.60;1.00
20182;DHT22;10250;50.756;6.172;2023-05-07T01:02:35;14.60;1.00
20182;DHT22;10250;50.756;6.172;2023-05-07T01:04:36;14.50;1.00
20182;DHT22;10250;50.756;6.172;2023-05-07T01:06:37;14.50;1.00
20182;DHT22;10250;50.756;6.172;2023-05-07T01:08:42;14.50;1.00
20182;DHT22;10250;50.756;6.172;2023-05-07T01:10:43;14.60;1.00
20182;DHT22;10250;50.756;6.172;2023-05-07T01:12:45;14.50;1.00
20182;DHT22;10250;50.756;6.172;2023-05-07T01:14:47;14.50;1.00
20182;DHT22;10250;50.756;6.172;2023-05-07T01:16:50;14.50;1.00
20182;DHT22;10250;50.756;6.172;2023-05-07T01:18:51;14.50;1.00
20182;DHT22;10250;50.756;6.172;2023-05-07T01:20:52;14.50;1.00
20182;DHT22;10250;50.756;6.172;2023-05-07T01:22:53;14.50;1.00
20182;DHT22;10250;50.756;6.172;2023-05-07T01:24:54;14.60;1.00
20182;DHT22;10250;50.756;6.172;2023-05-07T01:26:56;14.50;1.00
20182;DHT22;10250;50.756;6.172;2023-05-07T01:28:56;14.60;1.00
20182;DHT22;10250;50.756;6.172;2023-05-07T01:31:01;14.50;1.00
20182;DHT22;10250;50.756;6.172;2023-05-07T01:33:09;14.50;1.00
20182;DHT22;10250;50.756;6.172;2023-05-07T01:35:12;14.50;1.00
20182;DHT22;10250;50.756;6.172;2023-05-07T01:37:14;14.50;1.00
20182;DHT22;10250;50.756;6.172;2023-05-07T01:39:15;14.40;7.60
20182;DHT22;10250;50.756;6.172;2023-05-07T01:41:16;14.40;16.10
20182;DHT22;10250;50.756;6.172;2023-05-07T01:43:17;14.40;19.80
20182;DHT22;10250;50.756;6.172;2023-05-07T01:45:18;14.40;18.80
20182;DHT22;10250;50.756;6.172;2023-05-07T01:47:19;14.40;28.30
20182;DHT22;10250;50.756;6.172;2023-05-07T01:49:21;14.40;34.70
20182;DHT22;10250;50.756;6.172;2023-05-07T01:51:21;14.40;32.80
20182;DHT22;10250;50.756;6.172;2023-05-07T01:53:22;14.40;28.70
20182;DHT22;10250;50.756;6.172;2023-05-07T01:55:23;14.40;8.90
20182;DHT22;10250;50.756;6.172;2023-05-07T01:57:24;14.40;10.70
20182;DHT22;10250;50.756;6.172;2023-05-07T01:59:24;14.40;1.00
20182;DHT22;10250;50.756;6.172;2023-05-07T02:01:25;14.40;1.00
20182;DHT22;10250;50.756;6.172;2023-05-07T02:03:25;14.40;1.00
20182;DHT22;10250;50.756;6.172;2023-05-07T02:05:26;14.40;1.00
20182;DHT22;10250;50.756;6.172;2023-05-07T02:07:27;14.40;1.00
20182;DHT22;10250;50.756;6.172;2023-05-07T02:09:28;14.40;1.00
20182;DHT22;10250;50.756;6.172;2023-05-07T02:11:29;14.40;1.00
20182;DHT22;10250;50.756;6.172;2023-05-07T02:13:31;14.40;1.00
20182;DHT22;10250;50.756;6.172;2023-05-07T02:15:32;14.40;1.00
20182;DHT22;10250;50.756;6.172;2023-05-07T02:17:32;14.40;1.00
20182;DHT22;10250;50.756;6.172;2023-05-07T02:19:33;14.40;1.00
20182;DHT22;10250;50.756;6.172;2023-05-07T02:21:33;14.30;1.00
20182;DHT22;10250;50.756;6.172;2023-05-07T02:23:34;14.30;1.00
20182;DHT22;10250;50.756;6.172;2023-05-07T02:25:35;14.30;1.00
20182;DHT22;10250;50.756;6.172;2023-05-07T02:27:35;14.30;1.00
20182;DHT22;10250;50.756;6.172;2023-05-07T02:29:36;14.30;1.00
20182;DHT22;10250;50.756;6.172;2023-05-07T02:31:36;14.30;1.00
20182;DHT22;10250;50.756;6.172;2023-05-07T02:33:37;14.30;1.00
20182;DHT22;10250;50.756;6.172;2023-05-07T02:35:38;14.30;1.00
20182;DHT22;10250;50.756;6.172;2023-05-07T02:37:39;14.30;1.00
20182;DHT22;10250;50.756;6.172;2023-05-07T02:39:39;14.40;1.00
20182;DHT22;10250;50.756;6.172;2023-05-07T02:41:40;14.40;1.00
20182;DHT22;10250;50.756;6.172;2023-05-07T02:43:41;14.30;1.00
20182;DHT22;10250;50.756;6.172;2023-05-07T02:45:41;14.40;1.00
20182;DHT22;10250;50.756;6.172;2023-05-07T02:47:43;14.40;1.00
20182;DHT22;10250;50.756;6.172;2023-05-07T02:49:44;14.40;1.00
20182;DHT22;10250;50.756;6.172;2023-05-07T02:51:44;14.40;1.00
20182;DHT22;10250;50.756;6.172;2023-05-07T02:53:45;14.40;1.00
20182;DHT22;10250;50.756;6.172;2023-05-07T02:55:46;14.30;1.00
20182;DHT22;10250;50.756;6.172;2023-05-07T02:57:47;14.30;1.00
20182;DHT22;10250;50.756;6.172;2023-05-07T02:59:47;14.40;1.00
20182;DHT22;10250;50.756;6.172;2023-05-07T03:01:48;14.40;1.00
20182;DHT22;10250;50.756;6.172;2023-05-07T03:03:48;14.40;1.00
20182;DHT22;10250;50.756;6.172;2023-05-07T03:05:49;14.40;1.00
20182;DHT22;10250;50.756;6.172;2023-05-07T03:07:50;14.30;1.00
20182;DHT22;10250;50.756;6.172;2023-05-07T03:09:50;14.30;1.00
20182;DHT22;10250;50.756;6.172;2023-05-07T03:11:51;14.30;1.00
20182;DHT22;10250;50.756;6.172;2023-05-07T03:13:52;14.30;1.00
20182;DHT22;10250;50.756;6.172;2023-05-07T03:15:52;14.30;1.00
20182;DHT22;10250;50.756;6.172;2023-05-07T03:17:53;14.20;1.00
20182;DHT22;10250;50.756;6.172;2023-05-07T03:19:53;14.20;9.60
20182;DHT22;10250;50.756;6.172;2023-05-07T03:21:54;14.20;18.90
20182;DHT22;10250;50.756;6.172;2023-05-07T03:23:54;14.10;29.10
20182;DHT22;10250;50.756;6.172;2023-05-07T03:25:55;14.10;47.40
20182;DHT22;10250;50.756;6.172;2023-05-07T03:27:56;14.10;36.00
20182;DHT22;10250;50.756;6.172;2023-05-07T03:29:57;14.10;47.60
20182;DHT22;10250;50.756;6.172;2023-05-07T03:31:57;14.10;55.90
20182;DHT22;10250;50.756;6.172;2023-05-07T03:33:58;14.00;51.50
20182;DHT22;10250;50.756;6.172;2023-05-07T03:35:59;14.10;51.90
20182;DHT22;10250;50.756;6.172;2023-05-07T03:38:00;14.00;52.00
20182;DHT22;10250;50.756;6.172;2023-05-07T03:40:00;14.10;46.40
20182;DHT22;10250;50.756;6.172;2023-05-07T03:42:01;14.10;42.80
20182;DHT22;10250;50.756;6.172;2023-05-07T03:44:02;14.10;32.10
20182;DHT22;10250;50.756;6.172;2023-05-07T03:46:02;14.10;11.50
20182;DHT22;10250;50.756;6.172;2023-05-07T03:48:03;14.10;1.00
20182;DHT22;10250;50.756;6.172;2023-05-07T03:50:04;14.20;1.00
20182;DHT22;10250;50.756;6.172;2023-05-07T03:52:06;14.20;1.00
20182;DHT22;10250;50.756;6.172;2023-05-07T03:54:07;14.20;1.00
20182;DHT22;10250;50.756;6.172;2023-05-07T03:56:08;14.20;1.00
20182;DHT22;10250;50.756;6.172;2023-05-07T03:58:08;14.20;1.00
20182;DHT22;10250;50.756;6.172;2023-05-07T04:00:09;14.20;1.00
20182;DHT22;10250;50.756;6.172;2023-05-07T04:02:10;14.20;1.00
20182;DHT22;10250;50.756;6.172;2023-05-07T04:04:11;14.20;1.00
20182;DHT22;10250;50.756;6.172;2023-05-07T04:06:11;14.10;1.00
20182;DHT22;10250;50.756;6.172;2023-05-07T04:08:12;14.20;1.00
20182;DHT22;10250;50.756;6.172;2023-05-07T04:10:13;14.20;1.00
20182;DHT22;10250;50.756;6.172;2023-05-07T04:12:14;14.20;1.00
20182;DHT22;10250;50.756;6.172;2023-05-07T04:14:15;14.20;1.00
20182;DHT22;10250;50.756;6.172;2023-05-07T04:16:15;14.30;1.00
20182;DHT22;10250;50.756;6.172;2023-05-07T04:18:16;14.20;1.00
20182;DHT22;10250;50.756;6.172;2023-05-07T04:20:17;14.30;1.00
20182;DHT22;10250;50.756;6.172;2023-05-07T04:22:18;14.30;1.00
20182;DHT22;10250;50.756;6.172;2023-05-07T04:24:18;14.30;1.00
20182;DHT22;10250;50.756;6.172;2023-05-07T04:26:19;14.30;1.00
20182;DHT22;10250;50.756;6.172;2023-05-07T04:28:21;14.30;1.00
20182;DHT22;10250;50.756;6.172;2023-05-07T04:30:22;14.30;1.00
20182;DHT22;10250;50.756;6.172;2023-05-07T04:32:22;14.30;1.00
20182;DHT22;10250;50.756;6.172;2023-05-07T04:34:25;14.30;1.00
20182;DHT22;10250;50.756;6.172;2023-05-07T04:36:25;14.30;1.00
20182;DHT22;10250;50.756;6.172;2023-05-07T04:38:28;14.30;1.00
20182;DHT22;10250;50.756;6.172;2023-05-07T04:40:29;14.30;1.00
20182;DHT22;10250;50.756;6.172;2023-05-07T04:42:30;14.40;1.00
20182;DHT22;10250;50.756;6.172;2023-05-07T04:44:31;14.30;1.00
20182;DHT22;10250;50.756;6.172;2023-05-07T04:46:32;14.30;1.00
20182;DHT22;10250;50.756;6.172;2023-05-07T04:48:32;14.30;1.00
20182;DHT22;10250;50.756;6.172;2023-05-07T04:50:33;14.30;1.00
20182;DHT22;10250;50.756;6.172;2023-05-07T04:52:34;14.30;1.00
20182;DHT22;10250;50.756;6.172;2023-05-07T04:56:37;14.40;1.00
20182;DHT22;10250;50.756;6.172;2023-05-07T04:58:38;14.40;1.00
20182;DHT22;10250;50.756;6.172;2023-05-07T05:00:39;14.50;1.00
20182;DHT22;10250;50.756;6.172;2023-05-07T05:02:40;14.50;1.00
20182;DHT22;10250;50.756;6.172;2023-05-07T05:04:41;14.50;1.00
20182;DHT22;10250;50.756;6.172;2023-05-07T05:06:42;14.50;1.00
20182;DHT22;10250;50.756;6.172;2023-05-07T05:08:42;14.60;1.00
20182;DHT22;10250;50.756;6.172;2023-05-07T05:10:43;14.50;1.00
20182;DHT22;10250;50.756;6.172;2023-05-07T05:12:44;14.60;1.00
20182;DHT22;10250;50.756;6.172;2023-05-07T05:14:44;14.60;1.00
20182;DHT22;10250;50.756;6.172;2023-05-07T05:16:45;14.60;1.00
20182;DHT22;10250;50.756;6.172;2023-05-07T05:18:45;14.60;1.00
20182;DHT22;10250;50.756;6.172;2023-05-07T05:20:46;14.60;1.00
20182;DHT22;10250;50.756;6.172;2023-05-07T05:22:46;14.70;1.00
20182;DHT22;10250;50.756;6.172;2023-05-07T05:24:47;14.60;1.00
20182;DHT22;10250;50.756;6.172;2023-05-07T05:26:48;14.50;39.70
20182;DHT22;10250;50.756;6.172;2023-05-07T05:28:48;14.50;79.40
20182;DHT22;10250;50.756;6.172;2023-05-07T05:30:49;14.50;71.90
20182;DHT22;10250;50.756;6.172;2023-05-07T05:32:50;14.50;97.20
20182;DHT22;10250;50.756;6.172;2023-05-07T05:34:51;14.60;99.90
20182;DHT22;10250;50.756;6.172;2023-05-07T05:36:51;14.50;99.90
20182;DHT22;10250;50.756;6.172;2023-05-07T05:38:52;14.50;99.90
20182;DHT22;10250;50.756;6.172;2023-05-07T05:40:52;14.60;99.90
20182;DHT22;10250;50.756;6.172;2023-05-07T05:42:53;14.60;99.90
20182;DHT22;10250;50.756;6.172;2023-05-07T05:44:53;14.60;99.90
20182;DHT22;10250;50.756;6.172;2023-05-07T05:46:54;14.50;99.90
20182;DHT22;10250;50.756;6.172;2023-05-07T05:48:55;14.60;99.90
20182;DHT22;10250;50.756;6.172;2023-05-07T05:50:56;14.60;99.90
20182;DHT22;10250;50.756;6.172;2023-05-07T05:52:56;14.60;99.90
20182;DHT22;10250;50.756;6.172;2023-05-07T05:54:58;14.60;91.50
20182;DHT22;10250;50.756;6.172;2023-05-07T05:56:58;14.70;55.60
20182;DHT22;10250;50.756;6.172;2023-05-07T05:58:59;14.70;9.80
20182;DHT22;10250;50.756;6.172;2023-05-07T06:01:00;14.80;11.40
20182;DHT22;10250;50.756;6.172;2023-05-07T06:03:02;14.80;15.50
20182;DHT22;10250;50.756;6.172;2023-05-07T06:05:04;14.90;11.90
20182;DHT22;10250;50.756;6.172;2023-05-07T06:07:05;14.90;1.00
20182;DHT22;10250;50.756;6.172;2023-05-07T06:09:05;14.90;1.00
20182;DHT22;10250;50.756;6.172;2023-05-07T06:11:06;14.90;6.80
20182;DHT22;10250;50.756;6.172;2023-05-07T06:13:07;15.00;38.70
20182;DHT22;10250;50.756;6.172;2023-05-07T06:15:08;15.00;18.70
20182;DHT22;10250;50.756;6.172;2023-05-07T06:17:08;15.10;44.40
20182;DHT22;10250;50.756;6.172;2023-05-07T06:19:09;15.00;38.50
20182;DHT22;10250;50.756;6.172;2023-05-07T06:21:10;15.10;48.40
20182;DHT22;10250;50.756;6.172;2023-05-07T06:23:10;15.10;56.30
20182;DHT22;10250;50.756;6.172;2023-05-07T06:25:11;15.10;55.00
20182;DHT22;10250;50.756;6.172;2023-05-07T06:27:11;15.20;36.90
20182;DHT22;10250;50.756;6.172;2023-05-07T06:29:12;15.20;73.20
20182;DHT22;10250;50.756;6.172;2023-05-07T06:31:17;15.20;95.30
20182;DHT22;10250;50.756;6.172;2023-05-07T06:33:20;15.20;99.90
20182;DHT22;10250;50.756;6.172;2023-05-07T06:35:21;15.20;39.10
20182;DHT22;10250;50.756;6.172;2023-05-07T06:37:21;15.20;8.70
20182;DHT22;10250;50.756;6.172;2023-05-07T06:39:22;15.20;89.10
20182;DHT22;10250;50.756;6.172;2023-05-07T06:41:23;15.20;58.00
20182;DHT22;10250;50.756;6.172;2023-05-07T06:43:23;15.30;56.70
20182;DHT22;10250;50.756;6.172;2023-05-07T06:45:24;15.30;96.60
20182;DHT22;10250;50.756;6.172;2023-05-07T06:47:25;15.40;99.90
20182;DHT22;10250;50.756;6.172;2023-05-07T06:49:26;15.40;99.90
20182;DHT22;10250;50.756;6.172;2023-05-07T06:51:26;15.40;99.90
20182;DHT22;10250;50.756;6.172;2023-05-07T06:53:27;15.40;99.90
20182;DHT22;10250;50.756;6.172;2023-05-07T06:55:29;15.40;99.90
20182;DHT22;10250;50.756;6.172;2023-05-07T06:57:30;15.40;37.20
20182;DHT22;10250;50.756;6.172;2023-05-07T06:59:30;15.40;26.60
20182;DHT22;10250;50.756;6.172;2023-05-07T07:01:31;15.40;8.70
20182;DHT22;10250;50.756;6.172;2023-05-07T07:03:31;15.50;32.10
20182;DHT22;10250;50.756;6.172;2023-05-07T07:05:32;15.50;42.20
20182;DHT22;10250;50.756;6.172;2023-05-07T07:07:32;15.50;6.70
20182;DHT22;10250;50.756;6.172;2023-05-07T07:09:33;15.60;1.20
20182;DHT22;10250;50.756;6.172;2023-05-07T07:11:34;15.60;1.00
20182;DHT22;10250;50.756;6.172;2023-05-07T07:13:34;15.60;1.00
20182;DHT22;10250;50.756;6.172;2023-05-07T07:15:35;15.70;1.00
20182;DHT22;10250;50.756;6.172;2023-05-07T07:17:36;15.70;1.00
20182;DHT22;10250;50.756;6.172;2023-05-07T07:19:36;15.70;1.00
20182;DHT22;10250;50.756;6.172;2023-05-07T07:21:41;15.70;1.00
20182;DHT22;10250;50.756;6.172;2023-05-07T07:23:42;15.70;1.00
20182;DHT22;10250;50.756;6.172;2023-05-07T07:25:43;15.80;1.00
20182;DHT22;10250;50.756;6.172;2023-05-07T07:27:44;15.80;1.00
20182;DHT22;10250;50.756;6.172;2023-05-07T07:29:44;15.90;1.00
20182;DHT22;10250;50.756;6.172;2023-05-07T07:31:45;15.90;1.00
20182;DHT22;10250;50.756;6.172;2023-05-07T07:33:45;16.00;1.00
20182;DHT22;10250;50.756;6.172;2023-05-07T07:35:46;16.00;1.00
20182;DHT22;10250;50.756;6.172;2023-05-07T07:37:48;16.10;1.00
20182;DHT22;10250;50.756;6.172;2023-05-07T07:39:50;16.10;1.00
20182;DHT22;10250;50.756;6.172;2023-05-07T07:41:50;16.20;1.00
20182;DHT22;10250;50.756;6.172;2023-05-07T07:43:51;16.20;1.00
20182;DHT22;10250;50.756;6.172;2023-05-07T07:45:51;16.30;1.00
20182;DHT22;10250;50.756;6.172;2023-05-07T07:47:52;16.20;99.90
20182;DHT22;10250;50.756;6.172;2023-05-07T07:49:53;16.30;1.00
20182;DHT22;10250;50.756;6.172;2023-05-07T07:51:53;16.30;1.00
20182;DHT22;10250;50.756;6.172;2023-05-07T07:53:54;16.40;1.00
20182;DHT22;10250;50.756;6.172;2023-05-07T07:55:54;16.50;99.90
20182;DHT22;10250;50.756;6.172;2023-05-07T07:57:55;16.60;1.00
20182;DHT22;10250;50.756;6.172;2023-05-07T07:59:55;16.70;1.00
20182;DHT22;10250;50.756;6.172;2023-05-07T08:01:56;16.80;99.90
20182;DHT22;10250;50.756;6.172;2023-05-07T08:03:57;16.80;1.00
20182;DHT22;10250;50.756;6.172;2023-05-07T08:06:00;16.80;99.90
20182;DHT22;10250;50.756;6.172;2023-05-07T08:08:01;18.20;1.00
20182;DHT22;10250;50.756;6.172;2023-05-07T08:10:01;17.90;1.00
20182;DHT22;10250;50.756;6.172;2023-05-07T08:12:03;17.80;1.00
20182;DHT22;10250;50.756;6.172;2023-05-07T08:14:03;17.80;1.00
20182;DHT22;10250;50.756;6.172;2023-05-07T08:16:04;17.70;1.00
20182;DHT22;10250;50.756;6.172;2023-05-07T08:18:05;17.80;1.00
20182;DHT22;10250;50.756;6.172;2023-05-07T08:20:07;17.80;99.90
20182;DHT22;10250;50.756;6.172;2023-05-07T08:22:08;17.90;31.90
20182;DHT22;10250;50.756;6.172;2023-05-07T08:24:09;18.00;99.90
20182;DHT22;10250;50.756;6.172;2023-05-07T08:26:10;18.10;1.00
20182;DHT22;10250;50.756;6.172;2023-05-07T08:28:11;18.20;1.00
20182;DHT22;10250;50.756;6.172;2023-05-07T08:30:12;18.30;99.90
20182;DHT22;10250;50.756;6.172;2023-05-07T08:32:12;18.50;1.00
20182;DHT22;10250;50.756;6.172;2023-05-07T08:34:13;18.80;99.90
20182;DHT22;10250;50.756;6.172;2023-05-07T08:36:14;18.80;1.00
20182;DHT22;10250;50.756;6.172;2023-05-07T08:38:14;18.90;1.00
20182;DHT22;10250;50.756;6.172;2023-05-07T08:40:15;18.90;99.90
20182;DHT22;10250;50.756;6.172;2023-05-07T08:42:16;19.00;99.90
20182;DHT22;10250;50.756;6.172;2023-05-07T08:44:20;18.90;99.90
20182;DHT22;10250;50.756;6.172;2023-05-07T08:46:22;18.90;99.90
20182;DHT22;10250;50.756;6.172;2023-05-07T08:48:25;19.00;99.90
20182;DHT22;10250;50.756;6.172;2023-05-07T08:50:26;19.10;99.90
20182;DHT22;10250;50.756;6.172;2023-05-07T08:52:27;19.10;99.90
20182;DHT22;10250;50.756;6.172;2023-05-07T08:54:28;19.10;99.90
20182;DHT22;10250;50.756;6.172;2023-05-07T08:56:29;19.20;99.90
20182;DHT22;10250;50.756;6.172;2023-05-07T08:58:30;19.20;99.90
20182;DHT22;10250;50.756;6.172;2023-05-07T09:00:30;19.30;99.90
20182;DHT22;10250;50.756;6.172;2023-05-07T09:02:32;19.40;99.90
20182;DHT22;10250;50.756;6.172;2023-05-07T09:04:32;19.30;99.90
20182;DHT22;10250;50.756;6.172;2023-05-07T09:06:33;19.40;99.90
20182;DHT22;10250;50.756;6.172;2023-05-07T09:08:35;19.50;99.90
20182;DHT22;10250;50.756;6.172;2023-05-07T09:10:36;19.40;99.90
20182;DHT22;10250;50.756;6.172;2023-05-07T09:12:36;19.40;34.00
20182;DHT22;10250;50.756;6.172;2023-05-07T09:14:38;19.60;99.90
20182;DHT22;10250;50.756;6.172;2023-05-07T09:16:38;19.70;99.90
20182;DHT22;10250;50.756;6.172;2023-05-07T09:18:42;19.80;78.00
20182;DHT22;10250;50.756;6.172;2023-05-07T09:20:43;19.80;41.70
20182;DHT22;10250;50.756;6.172;2023-05-07T09:22:44;19.80;43.40
20182;DHT22;10250;50.756;6.172;2023-05-07T09:24:49;19.70;44.90
20182;DHT22;10250;50.756;6.172;2023-05-07T09:26:50;19.70;48.10
20182;DHT22;10250;50.756;6.172;2023-05-07T09:28:51;19.70;4.10
20182;DHT22;10250;50.756;6.172;2023-05-07T09:30:52;19.70;1.00
20182;DHT22;10250;50.756;6.172;2023-05-07T09:32:53;19.70;1.00
20182;DHT22;10250;50.756;6.172;2023-05-07T09:34:54;19.80;40.40
20182;DHT22;10250;50.756;6.172;2023-05-07T09:36:55;19.80;29.30
20182;DHT22;10250;50.756;6.172;2023-05-07T09:38:59;19.80;18.80
20182;DHT22;10250;50.756;6.172;2023-05-07T09:41:18;19.80;24.70
20182;DHT22;10250;50.756;6.172;2023-05-07T09:43:19;19.70;22.70
20182;DHT22;10250;50.756;6.172;2023-05-07T09:45:28;19.60;1.00
20182;DHT22;10250;50.756;6.172;2023-05-07T09:47:32;19.50;16.20
20182;DHT22;10250;50.756;6.172;2023-05-07T09:49:35;19.60;7.80
20182;DHT22;10250;50.756;6.172;2023-05-07T09:51:51;19.50;1.00
20182;DHT22;10250;50.756;6.172;2023-05-07T09:53:52;19.60;7.10
20182;DHT22;10250;50.756;6.172;2023-05-07T09:55:53;19.70;1.00
20182;DHT22;10250;50.756;6.172;2023-05-07T09:57:57;19.80;1.90
20182;DHT22;10250;50.756;6.172;2023-05-07T09:59:59;19.90;15.00
20182;DHT22;10250;50.756;6.172;2023-05-07T10:02:04;19.90;6.30
20182;DHT22;10250;50.756;6.172;2023-05-07T10:04:05;19.90;1.00
20182;DHT22;10250;50.756;6.172;2023-05-07T10:06:08;19.80;1.00
20182;DHT22;10250;50.756;6.172;2023-05-07T10:08:10;19.80;95.30
20182;DHT22;10250;50.756;6.172;2023-05-07T10:10:10;19.80;11.10
20182;DHT22;10250;50.756;6.172;2023-05-07T10:12:11;19.70;31.90
20182;DHT22;10250;50.756;6.172;2023-05-07T10:14:15;19.90;17.30
20182;DHT22;10250;50.756;6.172;2023-05-07T10:16:24;20.00;1.00
20182;DHT22;10250;50.756;6.172;2023-05-07T10:18:26;20.00;1.00
20182;DHT22;10250;50.756;6.172;2023-05-07T10:20:31;20.00;1.00
20182;DHT22;10250;50.756;6.172;2023-05-07T10:22:39;20.10;58.50
20182;DHT22;10250;50.756;6.172;2023-05-07T10:24:44;20.00;1.00
20182;DHT22;10250;50.756;6.172;2023-05-07T10:26:48;20.00;1.00
20182;DHT22;10250;50.756;6.172;2023-05-07T10:33:34;20.00;14.00
20182;DHT22;10250;50.756;6.172;2023-05-07T10:35:39;20.00;1.00
20182;DHT22;10250;50.756;6.172;2023-05-07T10:37:41;19.90;1.00
20182;DHT22;10250;50.756;6.172;2023-05-07T10:39:42;19.90;1.00
20182;DHT22;10250;50.756;6.172;2023-05-07T10:41:43;19.90;1.00
20182;DHT22;10250;50.756;6.172;2023-05-07T10:43:45;19.80;1.00
20182;DHT22;10250;50.756;6.172;2023-05-07T10:46:14;19.70;1.00
20182;DHT22;10250;50.756;6.172;2023-05-07T10:48:16;19.80;3.80
20182;DHT22;10250;50.756;6.172;2023-05-07T10:52:22;19.80;4.70
20182;DHT22;10250;50.756;6.172;2023-05-07T10:54:24;19.80;1.00
20182;DHT22;10250;50.756;6.172;2023-05-07T10:56:26;19.80;1.00
20182;DHT22;10250;50.756;6.172;2023-05-07T10:58:28;19.80;1.60
20182;DHT22;10250;50.756;6.172;2023-05-07T11:05:22;19.80;1.00
20182;DHT22;10250;50.756;6.172;2023-05-07T11:07:27;19.70;1.00
20182;DHT22;10250;50.756;6.172;2023-05-07T11:11:51;19.60;1.00
20182;DHT22;10250;50.756;6.172;2023-05-07T11:13:52;19.50;1.00
20182;DHT22;10250;50.756;6.172;2023-05-07T11:15:53;19.50;1.00
20182;DHT22;10250;50.756;6.172;2023-05-07T11:17:54;19.40;1.00
20182;DHT22;10250;50.756;6.172;2023-05-07T11:19:55;19.50;1.00
20182;DHT22;10250;50.756;6.172;2023-05-07T11:21:56;19.40;1.00
20182;DHT22;10250;50.756;6.172;2023-05-07T11:23:58;19.30;1.00
20182;DHT22;10250;50.756;6.172;2023-05-07T11:26:04;19.30;1.00
20182;DHT22;10250;50.756;6.172;2023-05-07T11:28:07;19.20;2.00
20182;DHT22;10250;50.756;6.172;2023-05-07T11:30:16;19.10;1.00
20182;DHT22;10250;50.756;6.172;2023-05-07T11:32:31;19.10;1.00
20182;DHT22;10250;50.756;6.172;2023-05-07T11:34:32;19.10;9.50
20182;DHT22;10250;50.756;6.172;2023-05-07T11:36:33;19.10;10.50
20182;DHT22;10250;50.756;6.172;2023-05-07T11:38:37;19.10;8.40
20182;DHT22;10250;50.756;6.172;2023-05-07T11:40:51;19.10;1.00
20182;DHT22;10250;50.756;6.172;2023-05-07T11:42:52;19.10;1.00
20182;DHT22;10250;50.756;6.172;2023-05-07T11:44:52;19.00;58.80
20182;DHT22;10250;50.756;6.172;2023-05-07T11:46:53;18.90;99.30
20182;DHT22;10250;50.756;6.172;2023-05-07T11:48:55;18.90;99.90
20182;DHT22;10250;50.756;6.172;2023-05-07T11:52:59;18.80;99.90
20182;DHT22;10250;50.756;6.172;2023-05-07T11:55:01;18.80;99.90
20182;DHT22;10250;50.756;6.172;2023-05-07T11:57:02;18.70;99.90
20182;DHT22;10250;50.756;6.172;2023-05-07T11:59:03;18.70;99.90
20182;DHT22;10250;50.756;6.172;2023-05-07T12:01:04;18.70;99.90
20182;DHT22;10250;50.756;6.172;2023-05-07T12:03:05;18.60;99.90
20182;DHT22;10250;50.756;6.172;2023-05-07T12:05:06;18.60;90.90
20182;DHT22;10250;50.756;6.172;2023-05-07T12:07:11;18.60;99.90
20182;DHT22;10250;50.756;6.172;2023-05-07T12:09:13;18.70;99.90
20182;DHT22;10250;50.756;6.172;2023-05-07T12:11:22;18.70;73.80
20182;DHT22;10250;50.756;6.172;2023-05-07T12:13:25;18.70;77.90
20182;DHT22;10250;50.756;6.172;2023-05-07T12:15:26;18.80;25.50
20182;DHT22;10250;50.756;6.172;2023-05-07T12:17:28;18.80;71.40
20182;DHT22;10250;50.756;6.172;2023-05-07T12:19:30;18.70;42.90
20182;DHT22;10250;50.756;6.172;2023-05-07T12:21:30;18.70;84.10
20182;DHT22;10250;50.756;6.172;2023-05-07T12:23:31;18.70;75.60
20182;DHT22;10250;50.756;6.172;2023-05-07T12:25:36;18.80;99.90
20182;DHT22;10250;50.756;6.172;2023-05-07T12:27:37;18.80;99.90
20182;DHT22;10250;50.756;6.172;2023-05-07T12:29:39;18.60;99.90
20182;DHT22;10250;50.756;6.172;2023-05-07T12:31:42;18.70;99.90
20182;DHT22;10250;50.756;6.172;2023-05-07T12:33:42;18.60;99.90
20182;DHT22;10250;50.756;6.172;2023-05-07T12:35:43;18.60;99.90
20182;DHT22;10250;50.756;6.172;2023-05-07T12:37:45;18.50;99.90
20182;DHT22;10250;50.756;6.172;2023-05-07T12:40:10;18.50;1.00
20182;DHT22;10250;50.756;6.172;2023-05-07T12:42:15;18.60;1.00
20182;DHT22;10250;50.756;6.172;2023-05-07T12:44:16;18.60;99.90
20182;DHT22;10250;50.756;6.172;2023-05-07T12:46:17;18.60;1.00
20182;DHT22;10250;50.756;6.172;2023-05-07T12:48:20;18.70;99.90
20182;DHT22;10250;50.756;6.172;2023-05-07T12:50:21;18.70;1.00
20182;DHT22;10250;50.756;6.172;2023-05-07T12:52:22;18.70;1.00
20182;DHT22;10250;50.756;6.172;2023-05-07T12:54:33;18.60;31.70
20182;DHT22;10250;50.756;6.172;2023-05-07T12:56:36;18.70;99.90
20182;DHT22;10250;50.756;6.172;2023-05-07T12:58:37;18.80;99.90
20182;DHT22;10250;50.756;6.172;2023-05-07T13:00:38;18.70;99.90
20182;DHT22;10250;50.756;6.172;2023-05-07T13:02:40;18.70;99.90
20182;DHT22;10250;50.756;6.172;2023-05-07T13:04:41;18.80;85.40
20182;DHT22;10250;50.756;6.172;2023-05-07T13:06:42;18.70;99.90
20182;DHT22;10250;50.756;6.172;2023-05-07T13:08:43;18.70;99.90
20182;DHT22;10250;50.756;6.172;2023-05-07T13:10:43;18.70;99.90
20182;DHT22;10250;50.756;6.172;2023-05-07T13:12:44;18.70;1.00